createdAt,value
2018-02-18T00:00:51.447Z,0.50
2018-02-18T00:03:19.029Z,0.40
2018-02-18T00:05:46.586Z,0.30
2018-02-18T00:08:14.191Z,0.40
2018-02-18T00:10:42.500Z,0.40
2018-02-18T00:13:10.099Z,0.40
2018-02-18T00:15:37.704Z,0.40
2018-02-18T00:18:06.054Z,0.30
2018-02-18T00:20:33.675Z,0.30
2018-02-18T00:23:01.240Z,0.20
2018-02-18T00:25:28.846Z,0.20
2018-02-18T00:27:56.453Z,0.00
2018-02-18T00:30:24.023Z,0.00
2018-02-18T00:32:51.721Z,0.00
2018-02-18T00:35:19.428Z,-0.10
2018-02-18T00:37:46.993Z,-0.10
2018-02-18T00:40:15.118Z,-0.10
2018-02-18T00:42:42.741Z,0.00
2018-02-18T00:45:10.273Z,0.00
2018-02-18T00:47:37.857Z,0.00
2018-02-18T00:50:05.412Z,-0.10
2018-02-18T00:52:33.016Z,-0.10
2018-02-18T00:55:00.614Z,-0.10
2018-02-18T00:57:28.222Z,-0.10
2018-02-18T00:59:55.781Z,-0.10
2018-02-18T01:02:24.749Z,-0.10
2018-02-18T01:04:52.312Z,-0.10
2018-02-18T01:07:19.928Z,-0.10
2018-02-18T01:09:48.249Z,-0.10
2018-02-18T01:12:15.782Z,-0.10
2018-02-18T01:14:43.396Z,-0.10
2018-02-18T01:17:10.918Z,-0.20
2018-02-18T01:19:38.699Z,-0.20
2018-02-18T01:22:06.225Z,-0.20
2018-02-18T01:24:33.806Z,-0.20
2018-02-18T01:27:01.351Z,-0.20
2018-02-18T01:29:28.917Z,-0.30
2018-02-18T01:31:56.527Z,-0.30
2018-02-18T01:34:24.110Z,-0.40
2018-02-18T01:36:52.408Z,-0.40
2018-02-18T01:39:19.989Z,-0.40
2018-02-18T01:41:47.805Z,-0.30
2018-02-18T01:44:16.862Z,-0.30
2018-02-18T01:46:44.415Z,-0.30
2018-02-18T01:49:11.990Z,-0.30
2018-02-18T01:51:39.563Z,-0.30
2018-02-18T01:54:07.112Z,-0.30
2018-02-18T01:56:34.652Z,-0.40
2018-02-18T01:59:02.217Z,-0.40
2018-02-18T02:01:29.764Z,-0.40
2018-02-18T02:03:57.372Z,-0.40
2018-02-18T02:06:25.707Z,-0.40
2018-02-18T02:08:53.988Z,-0.40
2018-02-18T02:11:21.578Z,-0.40
2018-02-18T02:13:49.200Z,-0.40
2018-02-18T02:16:16.725Z,-0.50
2018-02-18T02:18:44.292Z,-0.50
2018-02-18T02:21:12.569Z,-0.60
2018-02-18T02:23:40.160Z,-0.60
2018-02-18T02:26:07.748Z,-0.60
2018-02-18T02:28:35.575Z,-0.60
2018-02-18T02:31:03.454Z,-0.60
2018-02-18T02:33:31.018Z,-0.60
2018-02-18T02:35:58.665Z,-0.70
2018-02-18T02:38:26.343Z,-0.70
2018-02-18T02:40:53.886Z,-0.70
2018-02-18T02:43:22.071Z,-0.70
2018-02-18T02:45:50.382Z,-0.90
2018-02-18T02:48:18.285Z,-0.90
2018-02-18T02:50:45.839Z,-0.90
2018-02-18T02:53:13.454Z,-0.90
2018-02-18T02:55:41.079Z,-0.90
2018-02-18T02:58:10.159Z,-0.90
2018-02-18T03:00:37.755Z,-0.90
2018-02-18T03:03:05.362Z,-0.90
2018-02-18T03:05:34.190Z,-0.90
2018-02-18T03:08:02.515Z,-0.90
2018-02-18T03:10:30.138Z,-0.90
2018-02-18T03:12:57.747Z,-0.90
2018-02-18T03:15:25.429Z,-0.90
2018-02-18T03:17:53.131Z,-0.90
2018-02-18T03:20:21.661Z,-0.90
2018-02-18T03:22:50.440Z,-0.80
2018-02-18T03:25:18.168Z,-0.90
2018-02-18T03:27:45.831Z,-0.90
2018-02-18T03:30:13.386Z,-0.90
2018-02-18T03:32:41.019Z,-0.90
2018-02-18T03:35:09.455Z,-0.90
2018-02-18T03:37:37.052Z,-0.90
2018-02-18T03:40:05.812Z,-0.90
2018-02-18T03:42:33.609Z,-0.80
2018-02-18T03:45:02.320Z,-0.80
2018-02-18T03:47:30.010Z,-0.90
2018-02-18T03:49:58.361Z,-0.90
2018-02-18T03:52:26.759Z,-0.90
2018-02-18T03:54:54.393Z,-0.90
2018-02-18T03:57:23.853Z,-0.90
2018-02-18T03:59:51.422Z,-1.00
2018-02-18T04:02:19.042Z,-1.00
2018-02-18T04:04:46.619Z,-1.00
2018-02-18T04:07:14.317Z,-1.00
2018-02-18T04:09:41.912Z,-1.10
2018-02-18T04:12:10.204Z,-1.10
2018-02-18T04:14:37.811Z,-1.10
2018-02-18T04:17:06.115Z,-1.20
2018-02-18T04:19:34.740Z,-1.20
2018-02-18T04:22:02.468Z,-1.10
2018-02-18T04:24:30.089Z,-1.10
2018-02-18T04:26:58.062Z,-1.20
2018-02-18T04:29:25.606Z,-1.10
2018-02-18T04:31:54.446Z,-1.20
2018-02-18T04:34:22.016Z,-1.20
2018-02-18T04:36:49.616Z,-1.10
2018-02-18T04:39:17.208Z,-1.10
2018-02-18T04:41:44.788Z,-1.20
2018-02-18T04:44:12.365Z,-1.20
2018-02-18T04:46:39.964Z,-1.20
2018-02-18T04:49:07.572Z,-1.20
2018-02-18T04:51:36.045Z,-1.20
2018-02-18T04:54:03.631Z,-1.20
2018-02-18T04:56:31.203Z,-1.20
2018-02-18T04:58:58.743Z,-1.20
2018-02-18T05:01:26.331Z,-1.30
2018-02-18T05:03:54.634Z,-1.30
2018-02-18T05:06:22.959Z,-1.30
2018-02-18T05:08:50.973Z,-1.30
2018-02-18T05:11:19.388Z,-1.30
2018-02-18T05:13:47.775Z,-1.30
2018-02-18T05:16:15.388Z,-1.30
2018-02-18T05:18:44.052Z,-1.30
2018-02-18T05:21:11.664Z,-1.30
2018-02-18T05:23:40.470Z,-1.30
2018-02-18T05:26:08.821Z,-1.30
2018-02-18T05:28:36.388Z,-1.30
2018-02-18T05:31:03.975Z,-1.30
2018-02-18T05:33:31.528Z,-1.30
2018-02-18T05:35:59.104Z,-1.30
2018-02-18T05:38:27.651Z,-1.30
2018-02-18T05:40:55.954Z,-1.30
2018-02-18T05:43:23.533Z,-1.40
2018-02-18T05:45:51.088Z,-1.40
2018-02-18T05:48:19.383Z,-1.40
2018-02-18T05:50:46.975Z,-1.40
2018-02-18T05:53:14.557Z,-1.40
2018-02-18T05:55:42.168Z,-1.40
2018-02-18T05:58:09.712Z,-1.40
2018-02-18T06:00:37.288Z,-1.40
2018-02-18T06:03:04.874Z,-1.50
2018-02-18T06:05:32.453Z,-1.40
2018-02-18T06:08:00.035Z,-1.40
2018-02-18T06:10:27.606Z,-1.40
2018-02-18T06:12:55.206Z,-1.40
2018-02-18T06:15:22.815Z,-1.50
2018-02-18T06:17:50.392Z,-1.40
2018-02-18T06:20:17.957Z,-1.40
2018-02-18T06:22:45.535Z,-1.40
2018-02-18T06:25:13.090Z,-1.50
2018-02-18T06:27:40.686Z,-1.40
2018-02-18T06:30:08.217Z,-1.50
2018-02-18T06:32:35.830Z,-1.50
2018-02-18T06:35:03.378Z,-1.50
2018-02-18T06:37:31.737Z,-1.50
2018-02-18T06:39:59.285Z,-1.50
2018-02-18T06:42:26.848Z,-1.40
2018-02-18T06:44:54.426Z,-1.50
2018-02-18T06:47:22.758Z,-1.50
2018-02-18T06:49:50.313Z,-1.60
2018-02-18T06:52:17.908Z,-1.60
2018-02-18T06:54:45.456Z,-1.50
2018-02-18T06:57:13.093Z,-1.50
2018-02-18T06:59:40.658Z,-1.50
2018-02-18T07:02:09.055Z,-1.40
2018-02-18T07:04:36.934Z,-1.30
2018-02-18T07:07:04.530Z,-1.30
2018-02-18T07:09:32.109Z,-1.30
2018-02-18T07:11:59.672Z,-1.30
2018-02-18T07:14:27.928Z,-1.30
2018-02-18T07:16:56.404Z,-1.20
2018-02-18T07:19:23.955Z,-1.20
2018-02-18T07:21:52.313Z,-1.20
2018-02-18T07:24:19.870Z,-1.20
2018-02-18T07:26:48.256Z,-1.10
2018-02-18T07:29:17.040Z,-1.10
2018-02-18T07:31:44.617Z,-1.10
2018-02-18T07:34:12.932Z,-1.00
2018-02-18T07:36:41.298Z,-1.00
2018-02-18T07:39:08.893Z,-1.00
2018-02-18T07:41:36.427Z,-0.90
2018-02-18T07:44:04.920Z,-0.90
2018-02-18T07:46:33.114Z,-0.90
2018-02-18T07:49:00.673Z,-0.90
2018-02-18T07:51:28.325Z,-0.90
2018-02-18T07:53:55.890Z,-0.90
2018-02-18T07:56:23.449Z,-0.90
2018-02-18T07:58:51.025Z,-0.90
2018-02-18T08:01:18.572Z,-0.80
2018-02-18T08:03:46.116Z,-0.80
2018-02-18T08:06:13.655Z,-0.80
2018-02-18T08:08:41.276Z,-0.60
2018-02-18T08:11:08.819Z,-0.60
2018-02-18T08:13:36.401Z,-0.50
2018-02-18T08:16:03.967Z,-0.40
2018-02-18T08:18:31.741Z,-0.40
2018-02-18T08:20:59.350Z,-0.30
2018-02-18T08:23:26.891Z,-0.20
2018-02-18T08:25:54.434Z,-0.10
2018-02-18T08:28:21.981Z,0.00
2018-02-18T08:30:49.572Z,0.10
2018-02-18T08:33:17.188Z,0.20
2018-02-18T08:35:45.537Z,0.30
2018-02-18T08:38:14.026Z,0.30
2018-02-18T08:40:41.616Z,0.30
2018-02-18T08:43:09.976Z,0.60
2018-02-18T08:45:38.307Z,0.50
2018-02-18T08:48:05.838Z,0.70
2018-02-18T08:50:33.493Z,0.80
2018-02-18T08:53:01.227Z,0.90
2018-02-18T08:55:28.769Z,0.90
2018-02-18T08:57:56.346Z,0.90
2018-02-18T09:00:23.901Z,1.00
2018-02-18T09:02:51.437Z,1.00
2018-02-18T09:05:19.003Z,1.10
2018-02-18T09:07:47.498Z,1.10
2018-02-18T09:10:15.087Z,1.20
2018-02-18T09:12:42.648Z,1.40
2018-02-18T09:15:10.235Z,1.50
2018-02-18T09:17:38.006Z,1.50
2018-02-18T09:20:05.562Z,1.60
2018-02-18T09:22:33.152Z,1.60
2018-02-18T09:25:00.697Z,1.70
2018-02-18T09:27:28.307Z,1.90
2018-02-18T09:29:56.637Z,2.00
2018-02-18T09:32:24.864Z,2.00
2018-02-18T09:34:54.391Z,2.00
2018-02-18T09:37:22.940Z,2.20
2018-02-18T09:39:51.437Z,2.50
2018-02-18T09:42:18.988Z,2.40
2018-02-18T09:44:52.083Z,2.60
2018-02-18T09:47:21.025Z,2.70
2018-02-18T09:49:48.609Z,2.80
2018-02-18T09:52:16.230Z,2.90
2018-02-18T09:54:43.809Z,3.00
2018-02-18T09:57:11.474Z,3.10
2018-02-18T09:59:39.284Z,3.20
2018-02-18T10:02:06.896Z,3.30
2018-02-18T10:04:35.231Z,3.40
2018-02-18T10:07:04.937Z,3.40
2018-02-18T10:09:38.872Z,3.40
2018-02-18T10:12:06.492Z,3.50
2018-02-18T10:14:34.836Z,3.70
2018-02-18T10:17:02.380Z,3.70
2018-02-18T10:19:31.252Z,3.70
2018-02-18T10:21:58.840Z,3.70
2018-02-18T10:24:26.391Z,3.80
2018-02-18T10:26:54.087Z,4.00
2018-02-18T10:29:22.604Z,4.10
2018-02-18T10:31:50.267Z,4.20
2018-02-18T10:34:17.774Z,4.10
2018-02-18T10:36:46.236Z,4.10
2018-02-18T10:39:13.830Z,4.30
2018-02-18T10:41:42.182Z,4.50
2018-02-18T10:44:09.756Z,4.50
2018-02-18T10:46:38.083Z,4.60
2018-02-18T10:49:05.681Z,4.50
2018-02-18T10:51:33.260Z,4.50
2018-02-18T10:54:01.574Z,4.50
2018-02-18T10:56:29.578Z,4.50
2018-02-18T10:58:57.135Z,4.70
2018-02-18T11:01:24.682Z,4.80
2018-02-18T11:03:52.213Z,4.80
2018-02-18T11:06:19.818Z,4.90
2018-02-18T11:08:47.364Z,4.90
2018-02-18T11:11:14.955Z,5.00
2018-02-18T11:13:43.286Z,5.00
2018-02-18T11:16:10.891Z,5.00
2018-02-18T11:18:38.449Z,5.10
2018-02-18T11:21:05.993Z,5.20
2018-02-18T11:23:33.609Z,5.10
2018-02-18T11:26:01.228Z,5.10
2018-02-18T11:28:28.846Z,5.20
2018-02-18T11:30:56.431Z,5.40
2018-02-18T11:33:24.042Z,5.40
2018-02-18T11:35:51.677Z,5.40
2018-02-18T11:38:19.234Z,5.40
2018-02-18T11:40:47.635Z,5.30
2018-02-18T11:43:15.197Z,5.30
2018-02-18T11:45:42.754Z,5.50
2018-02-18T11:48:11.077Z,5.80
2018-02-18T11:50:38.597Z,5.80
2018-02-18T11:53:06.193Z,5.80
2018-02-18T11:55:33.792Z,5.90
2018-02-18T11:58:01.367Z,5.90
2018-02-18T12:00:28.964Z,6.00
2018-02-18T12:02:56.541Z,6.00
2018-02-18T12:05:24.232Z,5.90
2018-02-18T12:07:51.781Z,6.00
2018-02-18T12:10:19.328Z,5.90
2018-02-18T12:12:46.909Z,5.90
2018-02-18T12:15:14.539Z,5.90
2018-02-18T12:17:42.133Z,6.00
2018-02-18T12:20:10.460Z,6.00
2018-02-18T12:22:38.222Z,6.00
2018-02-18T12:25:05.854Z,6.10
2018-02-18T12:27:33.390Z,6.20
2018-02-18T12:30:00.947Z,6.10
2018-02-18T12:32:28.481Z,6.10
2018-02-18T12:34:56.088Z,6.10
2018-02-18T12:37:23.722Z,6.10
2018-02-18T12:39:51.549Z,6.30
2018-02-18T12:42:19.078Z,6.50
2018-02-18T12:44:46.603Z,6.60
2018-02-18T12:47:14.149Z,6.70
2018-02-18T12:49:41.707Z,6.70
2018-02-18T12:52:09.851Z,6.60
2018-02-18T12:54:37.393Z,6.50
2018-02-18T12:57:05.719Z,6.50
2018-02-18T12:59:33.276Z,6.50
2018-02-18T13:02:01.734Z,6.60
2018-02-18T13:04:29.304Z,6.60
2018-02-18T13:07:00.832Z,6.70
2018-02-18T13:09:28.470Z,6.70
2018-02-18T13:11:56.036Z,6.80
2018-02-18T13:14:24.361Z,6.90
2018-02-18T13:16:51.920Z,6.90
2018-02-18T13:19:19.472Z,7.10
2018-02-18T13:21:47.071Z,6.90
2018-02-18T13:24:14.674Z,6.90
2018-02-18T13:26:42.247Z,7.10
2018-02-18T13:29:10.489Z,7.10
2018-02-18T13:31:38.122Z,7.20
2018-02-18T13:34:06.436Z,7.20
2018-02-18T13:36:35.381Z,7.20
2018-02-18T13:39:03.758Z,7.20
2018-02-18T13:41:32.142Z,7.20
2018-02-18T13:43:59.713Z,7.20
2018-02-18T13:46:27.269Z,7.40
2018-02-18T13:48:54.850Z,7.60
2018-02-18T13:51:22.660Z,7.60
2018-02-18T13:53:50.216Z,7.70
2018-02-18T13:56:18.648Z,7.70
2018-02-18T13:58:46.244Z,7.60
2018-02-18T14:01:13.800Z,7.60
2018-02-18T14:03:41.452Z,7.50
2018-02-18T14:06:09.123Z,7.50
2018-02-18T14:08:36.685Z,7.40
2018-02-18T14:11:04.246Z,7.60
2018-02-18T14:13:31.813Z,7.60
2018-02-18T14:16:00.391Z,7.70
2018-02-18T14:18:28.048Z,7.80
2018-02-18T14:20:55.606Z,7.90
2018-02-18T14:23:23.249Z,7.90
2018-02-18T14:25:50.832Z,7.90
2018-02-18T14:28:18.441Z,7.90
2018-02-18T14:30:46.050Z,7.70
2018-02-18T14:33:13.710Z,7.50
2018-02-18T14:35:41.272Z,7.50
2018-02-18T14:38:08.861Z,7.60
2018-02-18T14:40:36.434Z,7.60
2018-02-18T14:43:15.689Z,7.70
2018-02-18T14:45:55.012Z,7.50
2018-02-18T14:48:34.366Z,7.50
2018-02-18T14:51:13.682Z,7.60
2018-02-18T14:53:53.059Z,7.60
2018-02-18T14:56:32.336Z,7.80
2018-02-18T14:58:59.939Z,7.70
2018-02-18T15:01:27.538Z,7.80
2018-02-18T15:03:55.200Z,7.70
2018-02-18T15:06:22.755Z,7.70
2018-02-18T15:08:50.383Z,7.60
2018-02-18T15:11:17.922Z,7.60
2018-02-18T15:13:45.517Z,7.60
2018-02-18T15:16:13.162Z,7.60
2018-02-18T15:18:40.730Z,7.40
2018-02-18T15:21:08.256Z,7.30
2018-02-18T15:23:36.592Z,7.30
2018-02-18T15:26:04.248Z,7.30
2018-02-18T15:28:31.967Z,7.30
2018-02-18T15:30:59.659Z,7.20
2018-02-18T15:33:27.426Z,7.10
2018-02-18T15:35:54.976Z,7.00
2018-02-18T15:38:22.620Z,7.00
2018-02-18T15:40:50.174Z,7.00
2018-02-18T15:43:17.770Z,7.00
2018-02-18T15:45:45.347Z,7.00
2018-02-18T15:48:12.936Z,7.00
2018-02-18T15:50:40.555Z,7.00
2018-02-18T15:53:08.108Z,7.00
2018-02-18T15:55:36.492Z,7.00
2018-02-18T15:58:04.063Z,7.00
2018-02-18T16:00:31.824Z,7.00
2018-02-18T16:02:59.364Z,7.00
2018-02-18T16:05:27.728Z,7.00
2018-02-18T16:07:55.312Z,7.00
2018-02-18T16:10:22.967Z,7.00
2018-02-18T16:12:50.550Z,7.00
2018-02-18T16:15:18.057Z,6.90
2018-02-18T16:17:45.639Z,7.00
2018-02-18T16:20:13.431Z,7.00
2018-02-18T16:22:40.922Z,6.90
2018-02-18T16:25:08.501Z,6.90
2018-02-18T16:27:36.912Z,6.80
2018-02-18T16:30:04.518Z,6.80
2018-02-18T16:32:32.072Z,6.70
2018-02-18T16:34:59.586Z,6.60
2018-02-18T16:37:27.195Z,6.60
2018-02-18T16:39:54.769Z,6.60
2018-02-18T16:42:23.177Z,6.40
2018-02-18T16:44:50.701Z,6.30
2018-02-18T16:47:19.036Z,6.20
2018-02-18T16:49:46.618Z,6.20
2018-02-18T16:52:14.204Z,6.10
2018-02-18T16:54:41.758Z,6.00
2018-02-18T16:57:09.324Z,5.90
2018-02-18T16:59:36.931Z,5.90
2018-02-18T17:02:04.464Z,5.80
2018-02-18T17:04:32.046Z,5.80
2018-02-18T17:06:59.750Z,5.70
2018-02-18T17:09:27.307Z,5.60
2018-02-18T17:11:54.936Z,5.60
2018-02-18T17:14:24.191Z,5.50
2018-02-18T17:16:51.749Z,5.50
2018-02-18T17:19:20.206Z,5.40
2018-02-18T17:21:47.835Z,5.40
2018-02-18T17:24:15.400Z,5.40
2018-02-18T17:26:43.092Z,5.30
2018-02-18T17:29:10.674Z,5.20
2018-02-18T17:31:38.321Z,5.20
2018-02-18T17:34:05.911Z,5.10
2018-02-18T17:36:33.615Z,5.10
2018-02-18T17:39:01.928Z,4.90
2018-02-18T17:41:29.552Z,4.90
2018-02-18T17:43:57.103Z,4.90
2018-02-18T17:46:24.657Z,4.80
2018-02-18T17:48:52.228Z,4.70
2018-02-18T17:51:19.823Z,4.60
2018-02-18T17:53:47.394Z,4.50
2018-02-18T17:56:14.981Z,4.50
2018-02-18T17:58:42.571Z,4.40
2018-02-18T18:01:10.171Z,4.40
2018-02-18T18:03:38.859Z,4.40
2018-02-18T18:06:06.411Z,4.30
2018-02-18T18:08:33.986Z,4.30
2018-02-18T18:11:01.534Z,4.20
2018-02-18T18:13:29.116Z,4.10
2018-02-18T18:15:56.697Z,4.10
2018-02-18T18:18:24.299Z,4.10
2018-02-18T18:20:52.191Z,4.00
2018-02-18T18:23:19.769Z,4.00
2018-02-18T18:25:47.314Z,4.00
2018-02-18T18:28:14.878Z,3.90
2018-02-18T18:30:42.688Z,3.90
2018-02-18T18:33:10.298Z,3.90
2018-02-18T18:35:37.878Z,3.80
2018-02-18T18:38:05.523Z,3.80
2018-02-18T18:40:33.155Z,3.80
2018-02-18T18:43:00.737Z,3.70
2018-02-18T18:45:28.293Z,3.70
2018-02-18T18:47:55.966Z,3.70
2018-02-18T18:50:23.564Z,3.50
2018-02-18T18:52:51.919Z,3.30
2018-02-18T18:55:19.513Z,3.30
2018-02-18T18:57:47.092Z,3.20
2018-02-18T19:00:15.928Z,3.20
2018-02-18T19:02:43.536Z,3.20
2018-02-18T19:05:11.184Z,3.20
2018-02-18T19:07:38.773Z,3.20
2018-02-18T19:10:06.374Z,3.10
2018-02-18T19:12:33.949Z,3.00
2018-02-18T19:15:01.530Z,2.90
2018-02-18T19:17:29.077Z,2.90
2018-02-18T19:19:56.890Z,2.80
2018-02-18T19:22:24.760Z,2.80
2018-02-18T19:24:52.331Z,2.90
2018-02-18T19:27:19.869Z,2.80
2018-02-18T19:29:47.457Z,2.80
2018-02-18T19:32:14.986Z,2.80
2018-02-18T19:34:42.516Z,2.80
2018-02-18T19:37:10.079Z,2.80
2018-02-18T19:39:38.404Z,2.70
2018-02-18T19:42:06.026Z,2.70
2018-02-18T19:44:34.356Z,2.60
2018-02-18T19:47:02.019Z,2.60
2018-02-18T19:49:29.572Z,2.60
2018-02-18T19:51:57.115Z,2.60
2018-02-18T19:54:24.688Z,2.60
2018-02-18T19:56:52.229Z,2.70
2018-02-18T19:59:19.766Z,2.70
2018-02-18T20:01:48.145Z,2.50
2018-02-18T20:04:15.709Z,2.50
2018-02-18T20:06:43.263Z,2.50
2018-02-18T20:09:11.582Z,2.50
2018-02-18T20:11:40.072Z,2.50
2018-02-18T20:14:07.650Z,2.50
2018-02-18T20:16:35.933Z,2.50
2018-02-18T20:19:03.547Z,2.50
2018-02-18T20:21:31.396Z,2.60
2018-02-18T20:23:58.938Z,2.60
2018-02-18T20:26:26.572Z,2.60
2018-02-18T20:28:54.099Z,2.60
2018-02-18T20:31:21.695Z,2.70
2018-02-18T20:33:50.004Z,2.60
2018-02-18T20:36:17.549Z,2.50
2018-02-18T20:38:45.111Z,2.40
2018-02-18T20:41:12.720Z,2.40
2018-02-18T20:43:40.296Z,2.30
2018-02-18T20:46:07.888Z,2.30
2018-02-18T20:48:35.454Z,2.30
2018-02-18T20:51:02.974Z,2.10
2018-02-18T20:53:31.272Z,2.10
2018-02-18T20:55:58.853Z,2.00
2018-02-18T20:58:26.413Z,2.00
2018-02-18T21:00:54.004Z,2.00
2018-02-18T21:03:21.547Z,2.00
2018-02-18T21:05:49.102Z,2.00
2018-02-18T21:08:16.660Z,2.10
2018-02-18T21:10:44.202Z,2.00
2018-02-18T21:13:11.793Z,2.00
2018-02-18T21:15:39.412Z,2.00
2018-02-18T21:18:07.028Z,2.00
2018-02-18T21:20:34.577Z,1.90
2018-02-18T21:23:02.118Z,1.90
2018-02-18T21:25:29.708Z,1.90
2018-02-18T21:27:57.246Z,1.80
2018-02-18T21:30:24.790Z,1.80
2018-02-18T21:32:52.358Z,1.70
2018-02-18T21:35:19.926Z,1.70
2018-02-18T21:37:47.523Z,1.70
2018-02-18T21:40:15.069Z,1.70
2018-02-18T21:42:43.335Z,1.60
2018-02-18T21:45:10.936Z,1.70
2018-02-18T21:47:39.230Z,1.80
2018-02-18T21:50:06.947Z,1.80
2018-02-18T21:52:34.509Z,1.70
2018-02-18T21:55:02.050Z,1.60
2018-02-18T21:57:29.628Z,1.70
2018-02-18T21:59:57.187Z,1.70
2018-02-18T22:02:25.507Z,1.70
2018-02-18T22:04:53.085Z,1.60
2018-02-18T22:07:20.660Z,1.50
2018-02-18T22:09:48.738Z,1.50
2018-02-18T22:12:16.321Z,1.30
2018-02-18T22:14:43.959Z,1.30
2018-02-18T22:17:11.627Z,1.30
2018-02-18T22:19:39.408Z,1.30
2018-02-18T22:22:06.968Z,1.30
2018-02-18T22:24:34.696Z,1.40
2018-02-18T22:27:03.121Z,1.40
2018-02-18T22:29:31.526Z,1.30
2018-02-18T22:31:59.243Z,1.30
2018-02-18T22:34:26.886Z,1.20
2018-02-18T22:36:55.327Z,1.20
2018-02-18T22:39:22.955Z,1.20
2018-02-18T22:41:50.524Z,1.10
2018-02-18T22:44:18.149Z,1.10
2018-02-18T22:46:45.702Z,1.10
2018-02-18T22:49:14.056Z,1.00
2018-02-18T22:51:41.776Z,1.00
2018-02-18T22:54:13.851Z,1.00
2018-02-18T22:56:42.232Z,1.10
2018-02-18T22:59:11.959Z,1.10
2018-02-18T23:01:39.607Z,1.20
2018-02-18T23:04:07.575Z,1.20
2018-02-18T23:06:35.889Z,1.30
2018-02-18T23:09:04.243Z,1.30
2018-02-18T23:11:32.517Z,1.30
2018-02-18T23:14:00.920Z,1.30
2018-02-18T23:16:28.519Z,1.30
2018-02-18T23:18:56.117Z,1.40
2018-02-18T23:21:23.699Z,1.50
2018-02-18T23:23:51.310Z,1.50
2018-02-18T23:26:18.852Z,1.50
2018-02-18T23:28:46.486Z,1.50
2018-02-18T23:31:14.823Z,1.50
2018-02-18T23:33:42.999Z,1.50
2018-02-18T23:36:11.310Z,1.10
2018-02-18T23:38:39.490Z,1.10
2018-02-18T23:41:07.021Z,1.00
2018-02-18T23:43:34.564Z,0.90
2018-02-18T23:46:03.297Z,0.80
2018-02-18T23:48:30.907Z,0.80
2018-02-18T23:50:58.468Z,0.80
2018-02-18T23:53:25.992Z,0.80
2018-02-18T23:55:54.612Z,0.90
2018-02-18T23:58:22.272Z,0.80
